sensor_id;sensor_type;location;lat;lon;timestamp;pressure;altitude;pressure_sealevel;temperature;humidity
61119;BME280;51448;51.660;5.824;2023-04-24T00:00:28;99877.19;;;10.07;100.00
61119;BME280;51448;51.660;5.824;2023-04-24T00:02:55;99871.00;;;10.08;100.00
61119;BME280;51448;51.660;5.824;2023-04-24T00:05:24;99881.44;;;10.10;100.00
61119;BME280;51448;51.660;5.824;2023-04-24T00:07:52;99875.34;;;10.10;100.00
61119;BME280;51448;51.660;5.824;2023-04-24T00:10:20;99870.94;;;10.10;100.00
61119;BME280;51448;51.660;5.824;2023-04-24T00:12:48;99875.34;;;10.10;100.00
61119;BME280;51448;51.660;5.824;2023-04-24T00:15:16;99878.88;;;10.08;100.00
61119;BME280;51448;51.660;5.824;2023-04-24T00:17:43;99887.69;;;10.07;100.00
61119;BME280;51448;51.660;5.824;2023-04-24T00:20:11;99891.16;;;10.08;100.00
61119;BME280;51448;51.660;5.824;2023-04-24T00:22:39;99884.13;;;10.08;100.00
61119;BME280;51448;51.660;5.824;2023-04-24T00:25:07;99889.34;;;10.10;100.00
61119;BME280;51448;51.660;5.824;2023-04-24T00:27:35;99889.34;;;10.10;100.00
61119;BME280;51448;51.660;5.824;2023-04-24T00:30:05;99888.50;;;10.10;100.00
61119;BME280;51448;51.660;5.824;2023-04-24T00:32:33;99890.28;;;10.09;100.00
61119;BME280;51448;51.660;5.824;2023-04-24T00:35:01;99886.72;;;10.10;100.00
61119;BME280;51448;51.660;5.824;2023-04-24T00:37:29;99891.13;;;10.10;100.00
61119;BME280;51448;51.660;5.824;2023-04-24T00:39:56;99892.81;;;10.11;100.00
61119;BME280;51448;51.660;5.824;2023-04-24T00:42:24;99891.13;;;10.10;100.00
61119;BME280;51448;51.660;5.824;2023-04-24T00:44:52;99892.03;;;10.08;100.00
61119;BME280;51448;51.660;5.824;2023-04-24T00:47:20;99887.69;;;10.07;100.00
61119;BME280;51448;51.660;5.824;2023-04-24T00:49:49;99885.97;;;10.06;100.00
61119;BME280;51448;51.660;5.824;2023-04-24T00:52:16;99897.41;;;10.05;100.00
61119;BME280;51448;51.660;5.824;2023-04-24T00:54:45;99889.59;;;10.04;100.00
61119;BME280;51448;51.660;5.824;2023-04-24T00:57:13;99903.56;;;10.04;100.00
61119;BME280;51448;51.660;5.824;2023-04-24T00:59:42;99897.47;;;10.04;100.00
61119;BME280;51448;51.660;5.824;2023-04-24T01:02:11;99888.78;;;10.02;100.00
61119;BME280;51448;51.660;5.824;2023-04-24T01:04:40;99894.09;;;10.00;100.00
61119;BME280;51448;51.660;5.824;2023-04-24T01:07:08;99895.03;;;9.99;100.00
61119;BME280;51448;51.660;5.824;2023-04-24T01:09:42;99894.25;;;9.97;100.00
61119;BME280;51448;51.660;5.824;2023-04-24T01:12:10;99886.41;;;9.96;100.00
61119;BME280;51448;51.660;5.824;2023-04-24T01:14:38;99881.31;;;9.93;100.00
61119;BME280;51448;51.660;5.824;2023-04-24T01:17:06;99890.22;;;9.89;100.00
61119;BME280;51448;51.660;5.824;2023-04-24T01:19:34;99887.66;;;9.87;100.00
61119;BME280;51448;51.660;5.824;2023-04-24T01:22:09;99892.09;;;9.85;100.00
61119;BME280;51448;51.660;5.824;2023-04-24T01:24:39;99893.16;;;9.81;100.00
61119;BME280;51448;51.660;5.824;2023-04-24T01:27:07;99879.34;;;9.76;100.00
61119;BME280;51448;51.660;5.824;2023-04-24T01:29:36;99881.16;;;9.74;100.00
61119;BME280;51448;51.660;5.824;2023-04-24T01:32:05;99883.00;;;9.72;100.00
61119;BME280;51448;51.660;5.824;2023-04-24T01:34:33;99882.19;;;9.70;100.00
61119;BME280;51448;51.660;5.824;2023-04-24T01:37:01;99886.66;;;9.67;100.00
61119;BME280;51448;51.660;5.824;2023-04-24T01:39:29;99875.34;;;9.65;100.00
61119;BME280;51448;51.660;5.824;2023-04-24T01:41:57;99891.19;;;9.64;100.00
61119;BME280;51448;51.660;5.824;2023-04-24T01:44:24;99886.00;;;9.62;100.00
61119;BME280;51448;51.660;5.824;2023-04-24T01:46:54;99886.91;;;9.61;100.00
61119;BME280;51448;51.660;5.824;2023-04-24T01:49:23;99876.53;;;9.58;100.00
61119;BME280;51448;51.660;5.824;2023-04-24T01:51:51;99887.13;;;9.55;100.00
61119;BME280;51448;51.660;5.824;2023-04-24T01:54:19;99884.59;;;9.54;100.00
61119;BME280;51448;51.660;5.824;2023-04-24T01:56:47;99882.03;;;9.52;100.00
61119;BME280;51448;51.660;5.824;2023-04-24T01:59:15;99885.53;;;9.51;100.00
61119;BME280;51448;51.660;5.824;2023-04-24T02:01:44;99884.69;;;9.51;100.00
61119;BME280;51448;51.660;5.824;2023-04-24T02:04:12;99884.84;;;9.48;100.00
61119;BME280;51448;51.660;5.824;2023-04-24T02:06:39;99880.53;;;9.45;100.00
61119;BME280;51448;51.660;5.824;2023-04-24T02:09:07;99880.63;;;9.43;100.00
61119;BME280;51448;51.660;5.824;2023-04-24T02:11:35;99885.88;;;9.43;100.00
61119;BME280;51448;51.660;5.824;2023-04-24T02:14:02;99882.38;;;9.43;100.00
61119;BME280;51448;51.660;5.824;2023-04-24T02:16:31;99888.66;;;9.39;100.00
61119;BME280;51448;51.660;5.824;2023-04-24T02:19:03;99878.38;;;9.33;100.00
61119;BME280;51448;51.660;5.824;2023-04-24T02:21:30;99882.78;;;9.32;100.00
61119;BME280;51448;51.660;5.824;2023-04-24T02:23:58;99881.00;;;9.33;100.00
61119;BME280;51448;51.660;5.824;2023-04-24T02:26:26;99886.19;;;9.34;100.00
61119;BME280;51448;51.660;5.824;2023-04-24T02:28:54;99884.50;;;9.33;100.00
61119;BME280;51448;51.660;5.824;2023-04-24T02:31:21;99895.84;;;9.34;100.00
61119;BME280;51448;51.660;5.824;2023-04-24T02:33:49;99884.50;;;9.33;100.00
61119;BME280;51448;51.660;5.824;2023-04-24T02:36:17;99891.50;;;9.33;100.00
61119;BME280;51448;51.660;5.824;2023-04-24T02:38:44;99888.97;;;9.31;100.00
61119;BME280;51448;51.660;5.824;2023-04-24T02:41:13;99889.84;;;9.30;100.00
61119;BME280;51448;51.660;5.824;2023-04-24T02:43:42;99894.25;;;9.30;100.00
61119;BME280;51448;51.660;5.824;2023-04-24T02:46:10;99889.91;;;9.29;100.00
61119;BME280;51448;51.660;5.824;2023-04-24T02:48:37;99883.88;;;9.26;100.00
61119;BME280;51448;51.660;5.824;2023-04-24T02:51:05;99887.41;;;9.25;100.00
61119;BME280;51448;51.660;5.824;2023-04-24T02:53:33;99878.75;;;9.23;100.00
61119;BME280;51448;51.660;5.824;2023-04-24T02:56:02;99888.41;;;9.23;100.00
61119;BME280;51448;51.660;5.824;2023-04-24T02:58:30;99895.47;;;9.21;100.00
61119;BME280;51448;51.660;5.824;2023-04-24T03:00:57;99881.47;;;9.20;100.00
61119;BME280;51448;51.660;5.824;2023-04-24T03:03:25;99890.28;;;9.19;100.00
61119;BME280;51448;51.660;5.824;2023-04-24T03:05:53;99883.38;;;9.17;100.00
61119;BME280;51448;51.660;5.824;2023-04-24T03:08:21;99882.50;;;9.16;100.00
61119;BME280;51448;51.660;5.824;2023-04-24T03:10:48;99894.81;;;9.14;100.00
61119;BME280;51448;51.660;5.824;2023-04-24T03:13:16;99893.97;;;9.14;100.00
61119;BME280;51448;51.660;5.824;2023-04-24T03:15:44;99880.84;;;9.14;100.00
61119;BME280;51448;51.660;5.824;2023-04-24T03:18:12;99900.94;;;9.15;100.00
61119;BME280;51448;51.660;5.824;2023-04-24T03:20:40;99897.44;;;9.14;100.00
61119;BME280;51448;51.660;5.824;2023-04-24T03:23:08;99892.19;;;9.14;100.00
61119;BME280;51448;51.660;5.824;2023-04-24T03:25:36;99892.28;;;9.13;100.00
61119;BME280;51448;51.660;5.824;2023-04-24T03:28:04;99894.00;;;9.12;100.00
61119;BME280;51448;51.660;5.824;2023-04-24T03:30:42;99895.00;;;9.10;100.00
61119;BME280;51448;51.660;5.824;2023-04-24T03:33:11;99907.25;;;9.09;100.00
61119;BME280;51448;51.660;5.824;2023-04-24T03:35:46;99887.97;;;9.10;100.00
61119;BME280;51448;51.660;5.824;2023-04-24T03:38:13;99901.88;;;9.12;100.00
61119;BME280;51448;51.660;5.824;2023-04-24T03:41:00;99901.88;;;9.12;100.00
61119;BME280;51448;51.660;5.824;2023-04-24T03:43:42;99901.84;;;9.14;100.00
61119;BME280;51448;51.660;5.824;2023-04-24T03:46:10;99898.31;;;9.15;100.00
61119;BME280;51448;51.660;5.824;2023-04-24T03:48:42;99900.84;;;9.16;100.00
61119;BME280;51448;51.660;5.824;2023-04-24T03:51:10;99893.00;;;9.16;100.00
61119;BME280;51448;51.660;5.824;2023-04-24T03:53:42;99890.38;;;9.16;100.00
61119;BME280;51448;51.660;5.824;2023-04-24T03:56:12;99893.78;;;9.18;100.00
61119;BME280;51448;51.660;5.824;2023-04-24T03:58:40;99885.91;;;9.18;100.00
61119;BME280;51448;51.660;5.824;2023-04-24T04:01:09;99890.31;;;9.18;100.00
61119;BME280;51448;51.660;5.824;2023-04-24T04:03:49;99897.34;;;9.17;100.00
61119;BME280;51448;51.660;5.824;2023-04-24T04:06:20;99885.13;;;9.16;100.00
61119;BME280;51448;51.660;5.824;2023-04-24T04:08:50;99893.00;;;9.16;100.00
61119;BME280;51448;51.660;5.824;2023-04-24T04:11:18;99888.63;;;9.17;100.00
61119;BME280;51448;51.660;5.824;2023-04-24T04:13:45;99889.47;;;9.17;100.00
61119;BME280;51448;51.660;5.824;2023-04-24T04:16:17;99899.97;;;9.17;100.00
61119;BME280;51448;51.660;5.824;2023-04-24T04:18:47;99892.09;;;9.17;100.00
61119;BME280;51448;51.660;5.824;2023-04-24T04:21:15;99898.31;;;9.15;100.00
61119;BME280;51448;51.660;5.824;2023-04-24T04:23:43;99896.63;;;9.12;100.00
61119;BME280;51448;51.660;5.824;2023-04-24T04:26:18;99889.69;;;9.11;100.00
61119;BME280;51448;51.660;5.824;2023-04-24T04:29:04;99894.16;;;9.09;100.00
61119;BME280;51448;51.660;5.824;2023-04-24T04:31:33;99887.16;;;9.08;100.00
61119;BME280;51448;51.660;5.824;2023-04-24T04:34:06;99893.34;;;9.07;100.00
61119;BME280;51448;51.660;5.824;2023-04-24T04:36:35;99891.63;;;9.06;100.00
61119;BME280;51448;51.660;5.824;2023-04-24T04:39:20;99889.91;;;9.05;100.00
61119;BME280;51448;51.660;5.824;2023-04-24T04:41:56;99892.59;;;9.03;100.00
61119;BME280;51448;51.660;5.824;2023-04-24T04:44:41;99894.41;;;9.01;100.00
61119;BME280;51448;51.660;5.824;2023-04-24T04:47:12;99892.81;;;8.97;100.00
61119;BME280;51448;51.660;5.824;2023-04-24T04:49:41;99898.06;;;8.97;100.00
61119;BME280;51448;51.660;5.824;2023-04-24T04:52:15;99898.00;;;8.99;100.00
61119;BME280;51448;51.660;5.824;2023-04-24T04:54:47;99892.78;;;8.99;100.00
61119;BME280;51448;51.660;5.824;2023-04-24T04:57:14;99894.47;;;9.00;100.00
61119;BME280;51448;51.660;5.824;2023-04-24T04:59:42;99896.25;;;8.99;100.00
61119;BME280;51448;51.660;5.824;2023-04-24T05:02:19;99898.00;;;8.99;100.00
61119;BME280;51448;51.660;5.824;2023-04-24T05:04:46;99896.38;;;8.96;100.00
61119;BME280;51448;51.660;5.824;2023-04-24T05:07:15;99889.41;;;8.95;100.00
61119;BME280;51448;51.660;5.824;2023-04-24T05:09:47;99899.03;;;8.95;100.00
61119;BME280;51448;51.660;5.824;2023-04-24T05:12:15;99904.28;;;8.95;100.00
61119;BME280;51448;51.660;5.824;2023-04-24T05:14:50;99902.56;;;8.94;100.00
61119;BME280;51448;51.660;5.824;2023-04-24T05:17:17;99907.81;;;8.94;100.00
61119;BME280;51448;51.660;5.824;2023-04-24T05:19:45;99906.09;;;8.93;100.00
61119;BME280;51448;51.660;5.824;2023-04-24T05:22:14;99906.97;;;8.93;100.00
61119;BME280;51448;51.660;5.824;2023-04-24T05:24:48;99912.25;;;8.92;100.00
61119;BME280;51448;51.660;5.824;2023-04-24T05:27:36;99914.94;;;8.90;100.00
61119;BME280;51448;51.660;5.824;2023-04-24T05:30:09;99910.56;;;8.91;100.00
61119;BME280;51448;51.660;5.824;2023-04-24T05:32:37;99908.81;;;8.90;100.00
61119;BME280;51448;51.660;5.824;2023-04-24T05:35:05;99918.41;;;8.91;100.00
61119;BME280;51448;51.660;5.824;2023-04-24T05:37:33;99921.94;;;8.90;100.00
61119;BME280;51448;51.660;5.824;2023-04-24T05:40:02;99928.09;;;8.89;100.00
61119;BME280;51448;51.660;5.824;2023-04-24T05:42:32;99935.13;;;8.88;100.00
61119;BME280;51448;51.660;5.824;2023-04-24T05:44:59;99923.75;;;8.88;100.00
61119;BME280;51448;51.660;5.824;2023-04-24T05:47:27;99935.97;;;8.89;100.00
61119;BME280;51448;51.660;5.824;2023-04-24T05:49:55;99935.97;;;8.89;100.00
61119;BME280;51448;51.660;5.824;2023-04-24T05:52:24;99943.03;;;8.86;100.00
61119;BME280;51448;51.660;5.824;2023-04-24T05:54:51;99939.50;;;8.88;100.00
61119;BME280;51448;51.660;5.824;2023-04-24T05:57:23;99934.31;;;8.86;100.00
61119;BME280;51448;51.660;5.824;2023-04-24T06:00:00;99942.22;;;8.84;100.00
61119;BME280;51448;51.660;5.824;2023-04-24T06:02:29;99941.31;;;8.85;100.00
61119;BME280;51448;51.660;5.824;2023-04-24T06:10:01;99956.31;;;8.82;100.00
61119;BME280;51448;51.660;5.824;2023-04-24T06:12:36;99963.25;;;8.83;100.00
61119;BME280;51448;51.660;5.824;2023-04-24T06:15:10;99960.59;;;8.84;100.00
61119;BME280;51448;51.660;5.824;2023-04-24T06:17:50;99964.88;;;8.87;100.00
61119;BME280;51448;51.660;5.824;2023-04-24T06:20:19;99959.56;;;8.89;100.00
61119;BME280;51448;51.660;5.824;2023-04-24T06:22:47;99960.41;;;8.89;100.00
61119;BME280;51448;51.660;5.824;2023-04-24T06:25:15;99968.25;;;8.91;100.00
61119;BME280;51448;51.660;5.824;2023-04-24T06:27:43;99972.56;;;8.92;100.00
61119;BME280;51448;51.660;5.824;2023-04-24T06:30:11;99983.06;;;8.92;100.00
61119;BME280;51448;51.660;5.824;2023-04-24T06:32:39;99990.03;;;8.93;100.00
61119;BME280;51448;51.660;5.824;2023-04-24T06:35:08;99983.97;;;8.91;100.00
61119;BME280;51448;51.660;5.824;2023-04-24T06:37:42;99990.13;;;8.90;100.00
61119;BME280;51448;51.660;5.824;2023-04-24T06:40:10;99987.63;;;8.86;100.00
61119;BME280;51448;51.660;5.824;2023-04-24T06:42:40;100000.78;;;8.85;100.00
61119;BME280;51448;51.660;5.824;2023-04-24T06:45:09;99988.63;;;8.82;100.00
61119;BME280;51448;51.660;5.824;2023-04-24T06:47:39;100007.03;;;8.81;100.00
61119;BME280;51448;51.660;5.824;2023-04-24T06:50:07;100009.59;;;8.82;100.00
61119;BME280;51448;51.660;5.824;2023-04-24T06:52:35;100019.28;;;8.80;100.00
61119;BME280;51448;51.660;5.824;2023-04-24T06:55:03;100020.19;;;8.79;100.00
61119;BME280;51448;51.660;5.824;2023-04-24T06:57:32;100033.22;;;8.82;100.00
61119;BME280;51448;51.660;5.824;2023-04-24T06:59:59;100036.72;;;8.81;100.00
61119;BME280;51448;51.660;5.824;2023-04-24T07:02:27;100040.16;;;8.83;100.00
61119;BME280;51448;51.660;5.824;2023-04-24T07:04:55;100043.66;;;8.84;100.00
61119;BME280;51448;51.660;5.824;2023-04-24T07:07:22;100051.56;;;8.82;100.00
61119;BME280;51448;51.660;5.824;2023-04-24T07:09:51;100052.41;;;8.83;100.00
61119;BME280;51448;51.660;5.824;2023-04-24T07:12:19;100062.91;;;8.83;100.00
61119;BME280;51448;51.660;5.824;2023-04-24T07:14:50;100064.72;;;8.81;100.00
61119;BME280;51448;51.660;5.824;2023-04-24T07:17:18;100077.03;;;8.79;100.00
61119;BME280;51448;51.660;5.824;2023-04-24T07:19:45;100084.06;;;8.77;100.00
61119;BME280;51448;51.660;5.824;2023-04-24T07:22:13;100091.91;;;8.78;100.00
61119;BME280;51448;51.660;5.824;2023-04-24T07:24:44;100093.72;;;8.76;100.00
61119;BME280;51448;51.660;5.824;2023-04-24T07:27:12;100093.72;;;8.76;100.00
61119;BME280;51448;51.660;5.824;2023-04-24T07:29:42;100093.78;;;8.73;100.00
61119;BME280;51448;51.660;5.824;2023-04-24T07:32:10;100111.22;;;8.76;100.00
61119;BME280;51448;51.660;5.824;2023-04-24T07:34:38;100123.53;;;8.74;100.00
61119;BME280;51448;51.660;5.824;2023-04-24T07:37:06;100110.44;;;8.72;100.00
61119;BME280;51448;51.660;5.824;2023-04-24T07:39:33;100112.25;;;8.70;100.00
61119;BME280;51448;51.660;5.824;2023-04-24T07:42:01;100134.13;;;8.69;100.00
61119;BME280;51448;51.660;5.824;2023-04-24T07:44:29;100137.66;;;8.68;100.00
61119;BME280;51448;51.660;5.824;2023-04-24T07:46:57;100151.66;;;8.67;100.00
61119;BME280;51448;51.660;5.824;2023-04-24T07:49:25;100166.59;;;8.65;100.00
61119;BME280;51448;51.660;5.824;2023-04-24T07:51:55;100170.16;;;8.62;100.00
61119;BME280;51448;51.660;5.824;2023-04-24T07:54:22;100178.13;;;8.59;100.00
61119;BME280;51448;51.660;5.824;2023-04-24T07:56:50;100193.06;;;8.57;100.00
61119;BME280;51448;51.660;5.824;2023-04-24T07:59:17;100197.53;;;8.54;100.00
61119;BME280;51448;51.660;5.824;2023-04-24T08:01:45;100202.84;;;8.51;100.00
61119;BME280;51448;51.660;5.824;2023-04-24T08:04:14;100215.13;;;8.49;100.00
61119;BME280;51448;51.660;5.824;2023-04-24T08:06:42;100220.44;;;8.47;100.00
61119;BME280;51448;51.660;5.824;2023-04-24T08:09:10;100226.59;;;8.44;100.00
61119;BME280;51448;51.660;5.824;2023-04-24T08:11:37;100231.91;;;8.43;100.00
61119;BME280;51448;51.660;5.824;2023-04-24T08:14:05;100245.91;;;8.40;100.00
61119;BME280;51448;51.660;5.824;2023-04-24T08:16:35;100241.59;;;8.39;100.00
61119;BME280;51448;51.660;5.824;2023-04-24T08:19:03;100253.03;;;8.37;100.00
61119;BME280;51448;51.660;5.824;2023-04-24T08:21:32;100266.16;;;8.35;100.00
61119;BME280;51448;51.660;5.824;2023-04-24T08:23:59;100274.03;;;8.35;100.00
61119;BME280;51448;51.660;5.824;2023-04-24T08:26:28;100284.50;;;8.35;100.00
61119;BME280;51448;51.660;5.824;2023-04-24T08:28:57;100279.22;;;8.37;100.00
61119;BME280;51448;51.660;5.824;2023-04-24T08:31:25;100294.06;;;8.36;100.00
61119;BME280;51448;51.660;5.824;2023-04-24T08:33:58;100294.00;;;8.39;100.00
61119;BME280;51448;51.660;5.824;2023-04-24T08:36:27;100302.72;;;8.41;100.00
61119;BME280;51448;51.660;5.824;2023-04-24T08:39:10;100310.53;;;8.43;100.00
61119;BME280;51448;51.660;5.824;2023-04-24T08:41:38;100314.84;;;8.44;100.00
61119;BME280;51448;51.660;5.824;2023-04-24T08:44:10;100328.81;;;8.44;100.00
61119;BME280;51448;51.660;5.824;2023-04-24T08:46:39;100333.13;;;8.47;100.00
61119;BME280;51448;51.660;5.824;2023-04-24T08:49:08;100334.00;;;8.48;100.00
61119;BME280;51448;51.660;5.824;2023-04-24T08:51:36;100336.56;;;8.49;100.00
61119;BME280;51448;51.660;5.824;2023-04-24T08:54:05;100339.13;;;8.51;100.00
61119;BME280;51448;51.660;5.824;2023-04-24T08:56:36;100337.31;;;8.53;100.00
61119;BME280;51448;51.660;5.824;2023-04-24T08:59:09;100338.28;;;8.50;100.00
61119;BME280;51448;51.660;5.824;2023-04-24T09:01:38;100357.53;;;8.49;100.00
61119;BME280;51448;51.660;5.824;2023-04-24T09:04:09;100365.41;;;8.49;100.00
61119;BME280;51448;51.660;5.824;2023-04-24T09:06:42;100357.53;;;8.49;100.00
61119;BME280;51448;51.660;5.824;2023-04-24T09:09:10;100373.28;;;8.49;100.00
61119;BME280;51448;51.660;5.824;2023-04-24T09:11:39;100381.06;;;8.51;100.00
61119;BME280;51448;51.660;5.824;2023-04-24T09:14:11;100374.94;;;8.52;100.00
61119;BME280;51448;51.660;5.824;2023-04-24T09:16:39;100388.75;;;8.57;100.00
61119;BME280;51448;51.660;5.824;2023-04-24T09:19:07;100393.00;;;8.62;100.00
61119;BME280;51448;51.660;5.824;2023-04-24T09:21:36;100403.34;;;8.67;100.00
61119;BME280;51448;51.660;5.824;2023-04-24T09:24:07;100402.34;;;8.71;100.00
61119;BME280;51448;51.660;5.824;2023-04-24T09:26:41;100407.53;;;8.74;100.00
61119;BME280;51448;51.660;5.824;2023-04-24T09:29:16;100410.88;;;8.79;100.00
61119;BME280;51448;51.660;5.824;2023-04-24T09:31:45;100416.78;;;8.88;100.00
61119;BME280;51448;51.660;5.824;2023-04-24T09:34:13;100429.81;;;8.91;100.00
61119;BME280;51448;51.660;5.824;2023-04-24T09:36:42;100424.47;;;8.94;100.00
61119;BME280;51448;51.660;5.824;2023-04-24T09:39:13;100439.31;;;8.95;100.00
61119;BME280;51448;51.660;5.824;2023-04-24T09:44:36;100442.66;;;9.00;100.00
61119;BME280;51448;51.660;5.824;2023-04-24T09:47:08;100451.25;;;9.06;100.00
61119;BME280;51448;51.660;5.824;2023-04-24T09:49:37;100453.63;;;9.14;100.00
61119;BME280;51448;51.660;5.824;2023-04-24T09:52:09;100454.09;;;9.29;100.00
61119;BME280;51448;51.660;5.824;2023-04-24T09:54:38;100452.09;;;9.37;100.00
61119;BME280;51448;51.660;5.824;2023-04-24T09:57:07;100464.16;;;9.44;100.00
61119;BME280;51448;51.660;5.824;2023-04-24T09:59:41;100469.09;;;9.55;100.00
61119;BME280;51448;51.660;5.824;2023-04-24T10:02:19;100486.44;;;9.60;100.00
61119;BME280;51448;51.660;5.824;2023-04-24T10:04:55;100488.13;;;9.61;100.00
61119;BME280;51448;51.660;5.824;2023-04-24T10:07:26;100493.38;;;9.61;100.00
61119;BME280;51448;51.660;5.824;2023-04-24T10:09:54;100503.72;;;9.67;100.00
61119;BME280;51448;51.660;5.824;2023-04-24T10:12:23;100495.81;;;9.69;100.00
61119;BME280;51448;51.660;5.824;2023-04-24T10:14:53;100496.66;;;9.70;100.00
61119;BME280;51448;51.660;5.824;2023-04-24T10:17:21;100501.06;;;9.69;100.00
61119;BME280;51448;51.660;5.824;2023-04-24T10:19:52;100497.56;;;9.69;100.00
61119;BME280;51448;51.660;5.824;2023-04-24T10:22:21;100501.06;;;9.69;100.00
61119;BME280;51448;51.660;5.824;2023-04-24T10:24:53;100502.91;;;9.65;100.00
61119;BME280;51448;51.660;5.824;2023-04-24T10:27:21;100512.50;;;9.66;100.00
61119;BME280;51448;51.660;5.824;2023-04-24T10:29:51;100507.25;;;9.66;100.00
61119;BME280;51448;51.660;5.824;2023-04-24T10:32:20;100523.03;;;9.66;100.00
61119;BME280;51448;51.660;5.824;2023-04-24T10:34:48;100522.19;;;9.64;100.00
61119;BME280;51448;51.660;5.824;2023-04-24T10:37:16;100522.25;;;9.63;100.00
61119;BME280;51448;51.660;5.824;2023-04-24T10:39:47;100534.41;;;9.65;100.00
61119;BME280;51448;51.660;5.824;2023-04-24T10:42:18;100534.34;;;9.69;100.00
61119;BME280;51448;51.660;5.824;2023-04-24T10:44:47;100529.78;;;9.74;100.00
61119;BME280;51448;51.660;5.824;2023-04-24T10:47:16;100540.94;;;9.82;100.00
61119;BME280;51448;51.660;5.824;2023-04-24T10:49:44;100534.69;;;9.86;100.00
61119;BME280;51448;51.660;5.824;2023-04-24T10:52:13;100542.50;;;9.89;100.00
61119;BME280;51448;51.660;5.824;2023-04-24T10:54:46;100547.72;;;9.91;100.00
61119;BME280;51448;51.660;5.824;2023-04-24T10:59:46;100557.47;;;9.85;98.03
61119;BME280;51448;51.660;5.824;2023-04-24T11:02:15;100565.56;;;9.78;98.24
61119;BME280;51448;51.660;5.824;2023-04-24T11:04:43;100576.34;;;9.69;98.11
61119;BME280;51448;51.660;5.824;2023-04-24T11:07:13;100573.97;;;9.59;96.93
61119;BME280;51448;51.660;5.824;2023-04-24T11:09:42;100568.00;;;9.54;97.05
61119;BME280;51448;51.660;5.824;2023-04-24T11:12:16;100571.28;;;9.62;97.49
61119;BME280;51448;51.660;5.824;2023-04-24T11:17:35;100573.84;;;9.95;97.36
61119;BME280;51448;51.660;5.824;2023-04-24T11:20:10;100575.06;;;10.13;96.99
61119;BME280;51448;51.660;5.824;2023-04-24T11:22:55;100576.44;;;10.25;96.58
61119;BME280;51448;51.660;5.824;2023-04-24T11:25:24;100578.16;;;10.26;95.16
61119;BME280;51448;51.660;5.824;2023-04-24T11:28:03;100596.63;;;10.23;92.69
61119;BME280;51448;51.660;5.824;2023-04-24T11:30:32;100588.91;;;10.18;93.30
61119;BME280;51448;51.660;5.824;2023-04-24T11:33:05;100598.44;;;10.21;93.42
61119;BME280;51448;51.660;5.824;2023-04-24T11:35:39;100585.28;;;10.22;94.19
61119;BME280;51448;51.660;5.824;2023-04-24T11:38:09;100601.97;;;10.21;91.85
61119;BME280;51448;51.660;5.824;2023-04-24T11:40:40;100600.22;;;10.20;92.09
61119;BME280;51448;51.660;5.824;2023-04-24T11:43:10;100600.19;;;10.22;92.63
61119;BME280;51448;51.660;5.824;2023-04-24T11:45:48;100607.16;;;10.23;92.10
61119;BME280;51448;51.660;5.824;2023-04-24T11:48:20;100608.03;;;10.23;92.17
61119;BME280;51448;51.660;5.824;2023-04-24T11:50:50;100614.22;;;10.21;91.98
61119;BME280;51448;51.660;5.824;2023-04-24T11:53:20;100617.84;;;10.17;92.27
61119;BME280;51448;51.660;5.824;2023-04-24T11:55:51;100622.47;;;10.08;90.49
61119;BME280;51448;51.660;5.824;2023-04-24T11:58:20;100626.22;;;10.00;90.77
61119;BME280;51448;51.660;5.824;2023-04-24T12:00:56;100623.75;;;9.95;91.15
61119;BME280;51448;51.660;5.824;2023-04-24T12:03:25;100640.53;;;9.90;91.61
61119;BME280;51448;51.660;5.824;2023-04-24T12:06:04;100651.06;;;9.90;91.80
61119;BME280;51448;51.660;5.824;2023-04-24T12:08:35;100648.56;;;9.85;91.15
61119;BME280;51448;51.660;5.824;2023-04-24T12:11:06;100639.84;;;9.83;92.15
61119;BME280;51448;51.660;5.824;2023-04-24T12:13:35;100661.69;;;9.85;91.97
61119;BME280;51448;51.660;5.824;2023-04-24T12:16:04;100659.06;;;9.85;91.52
61119;BME280;51448;51.660;5.824;2023-04-24T12:18:33;100661.66;;;9.86;91.03
61119;BME280;51448;51.660;5.824;2023-04-24T12:21:26;100668.44;;;9.94;90.74
61119;BME280;51448;51.660;5.824;2023-04-24T12:24:00;100666.47;;;10.02;91.16
61119;BME280;51448;51.660;5.824;2023-04-24T12:26:28;100677.53;;;10.13;91.42
61119;BME280;51448;51.660;5.824;2023-04-24T12:29:01;100674.44;;;10.30;90.53
61119;BME280;51448;51.660;5.824;2023-04-24T12:31:31;100660.75;;;10.49;90.94
61119;BME280;51448;51.660;5.824;2023-04-24T12:33:59;100666.31;;;10.67;91.49
61119;BME280;51448;51.660;5.824;2023-04-24T12:36:28;100663.25;;;10.81;89.89
61119;BME280;51448;51.660;5.824;2023-04-24T12:38:55;100661.88;;;10.96;90.17
61119;BME280;51448;51.660;5.824;2023-04-24T12:41:23;100666.78;;;11.07;89.89
61119;BME280;51448;51.660;5.824;2023-04-24T12:43:54;100662.22;;;11.14;88.29
61119;BME280;51448;51.660;5.824;2023-04-24T12:46:22;100667.41;;;11.15;88.16
61119;BME280;51448;51.660;5.824;2023-04-24T12:48:50;100671.56;;;11.22;87.31
61119;BME280;51448;51.660;5.824;2023-04-24T12:51:17;100663.88;;;11.16;86.72
61119;BME280;51448;51.660;5.824;2023-04-24T12:53:45;100678.91;;;11.13;87.00
61119;BME280;51448;51.660;5.824;2023-04-24T12:56:13;100675.69;;;11.03;86.30
61119;BME280;51448;51.660;5.824;2023-04-24T12:58:40;100684.00;;;10.91;87.35
61119;BME280;51448;51.660;5.824;2023-04-24T13:01:08;100688.81;;;10.76;87.50
61119;BME280;51448;51.660;5.824;2023-04-24T13:03:36;100712.06;;;10.62;88.59
61119;BME280;51448;51.660;5.824;2023-04-24T13:06:03;100702.84;;;10.49;90.13
61119;BME280;51448;51.660;5.824;2023-04-24T13:08:31;100714.41;;;10.41;91.87
61119;BME280;51448;51.660;5.824;2023-04-24T13:10:59;100708.22;;;10.44;92.61
61119;BME280;51448;51.660;5.824;2023-04-24T13:13:27;100699.97;;;10.56;93.21
61119;BME280;51448;51.660;5.824;2023-04-24T13:15:54;100696.97;;;10.69;93.56
61119;BME280;51448;51.660;5.824;2023-04-24T13:18:22;100708.97;;;10.77;93.83
61119;BME280;51448;51.660;5.824;2023-04-24T13:20:53;100722.09;;;10.79;91.55